Time;durP1;ratioP1;P1;durP2;ratioP2;P2;SDS_P1;SDS_P2;PMS_P1;PMS_P2;Temp;Humidity;BMP_temperature;BMP_pressure;BME280_temperature;BME280_humidity;BME280_pressure;Samples;Min_cycle;Max_cycle;Signal;HPM_P1;HPM_P2
2021/06/14 00:01:22;;;;;;;3.55;1.73;;;;;;;15.22;47.70;100742.22;5096678;28;20024;-63
2021/06/14 00:03:48;;;;;;;5.32;1.90;;;;;;;15.20;48.41;100739.03;5094184;28;20027;-63
2021/06/14 00:06:13;;;;;;;9.57;2.03;;;;;;;15.13;49.47;100743.56;5096266;28;20098;-69
2021/06/14 00:08:41;;;;;;;5.70;2.03;;;;;;;15.11;49.97;100748.88;5096284;28;20043;-63
2021/06/14 00:11:06;;;;;;;3.22;2.22;;;;;;;15.06;50.86;100734.34;5096604;28;20031;-63
2021/06/14 00:13:32;;;;;;;6.32;1.63;;;;;;;15.01;50.70;100743.31;5096777;28;20028;-63
2021/06/14 00:15:58;;;;;;;9.20;1.80;;;;;;;14.96;51.57;100733.28;5095255;28;20412;-63
2021/06/14 00:18:23;;;;;;;4.28;1.83;;;;;;;14.91;52.38;100733.75;5096620;28;20429;-63
2021/06/14 00:21:00;;;;;;;2.47;1.52;;;;;;;14.83;52.58;100738.72;5096221;28;20016;-63
2021/06/14 00:23:28;;;;;;;5.45;2.13;;;;;;;14.75;53.10;100725.84;5089862;28;20054;-63
2021/06/14 00:25:54;;;;;;;7.43;1.95;;;;;;;14.70;53.26;100739.69;5096228;28;20062;-64
2021/06/14 00:28:20;;;;;;;4.40;2.05;;;;;;;14.65;53.73;100740.16;5096262;28;20020;-63
2021/06/14 00:30:48;;;;;;;7.38;2.30;;;;;;;14.57;54.19;100747.13;5096197;28;20024;-63
2021/06/14 00:33:15;;;;;;;5.95;2.10;;;;;;;14.50;54.49;100742.31;5096258;28;20068;-63
2021/06/14 00:35:42;;;;;;;4.63;2.20;;;;;;;14.46;54.23;100742.38;5096099;28;20485;-63
2021/06/14 00:38:07;;;;;;;5.28;2.15;;;;;;;14.43;54.85;100736.75;5095717;28;20032;-63
2021/06/14 00:40:34;;;;;;;5.35;1.90;;;;;;;14.42;55.30;100735.13;5096014;28;20035;-70
2021/06/14 00:42:59;;;;;;;5.75;2.30;;;;;;;14.41;54.86;100736.34;5094698;28;20028;-63
2021/06/14 00:45:30;;;;;;;5.47;1.90;;;;;;;14.39;54.99;100730.31;5096186;28;20039;-64
2021/06/14 00:47:56;;;;;;;9.30;1.80;;;;;;;14.36;55.38;100743.25;5095996;28;20411;-64
2021/06/14 00:50:52;;;;;;;7.25;2.47;;;;;;;14.35;55.61;100740.84;5095794;28;20422;-63
2021/06/14 00:53:22;;;;;;;3.35;2.40;;;;;;;14.29;56.29;100723.56;5088233;28;20035;-63
2021/06/14 00:55:48;;;;;;;4.22;1.98;;;;;;;14.25;56.21;100731.28;5095850;28;20050;-64
2021/06/14 00:58:14;;;;;;;7.28;3.00;;;;;;;14.25;56.46;100725.63;5095780;28;20042;-63
2021/06/14 01:00:40;;;;;;;7.18;2.63;;;;;;;14.25;56.65;100730.47;5095776;28;20128;-63
2021/06/14 01:03:06;;;;;;;5.40;2.22;;;;;;;14.22;56.28;100732.91;5087223;28;20031;-63
2021/06/14 01:05:36;;;;;;;8.10;2.30;;;;;;;14.24;56.72;100729.66;5093209;28;20094;-63
2021/06/14 01:08:02;;;;;;;5.80;2.38;;;;;;;14.22;56.49;100732.09;5095712;28;20016;-63
2021/06/14 01:10:27;;;;;;;4.53;2.30;;;;;;;14.17;56.55;100730.53;5095710;28;20344;-64
2021/06/14 01:13:31;;;;;;;3.63;2.20;;;;;;;14.16;56.64;100726.09;5095704;28;20356;-63
2021/06/14 01:16:17;;;;;;;5.20;2.08;;;;;;;14.13;57.04;100728.97;5095424;28;20113;-63
2021/06/14 01:19:09;;;;;;;5.90;1.95;;;;;;;14.12;57.11;100727.34;5095302;28;20108;-63
2021/06/14 01:22:12;;;;;;;4.25;2.22;;;;;;;14.12;57.12;100733.00;5095508;28;20031;-63
2021/06/14 01:25:09;;;;;;;5.95;2.78;;;;;;;14.06;57.58;100731.88;5095140;28;20442;-63
2021/06/14 01:27:44;;;;;;;3.60;2.05;;;;;;;14.01;57.60;100733.13;5095433;28;20020;-63
2021/06/14 01:30:16;;;;;;;6.25;2.10;;;;;;;13.97;57.38;100725.88;5095483;28;20032;-63
2021/06/14 01:32:43;;;;;;;5.95;2.22;;;;;;;13.92;57.73;100736.41;5095768;28;20397;-64
2021/06/14 01:35:11;;;;;;;6.47;2.38;;;;;;;13.88;57.78;100727.16;5094886;28;20039;-63
2021/06/14 01:37:45;;;;;;;6.03;2.17;;;;;;;13.83;57.99;100733.28;5095594;28;20335;-63
2021/06/14 01:40:12;;;;;;;3.42;2.30;;;;;;;13.82;58.03;100742.97;5095290;28;20016;-63
2021/06/14 01:42:39;;;;;;;4.88;2.55;;;;;;;13.84;58.46;100746.19;5095290;28;20135;-63
2021/06/14 01:45:05;;;;;;;6.40;2.17;;;;;;;13.80;58.66;100741.78;5095058;28;20028;-65
2021/06/14 01:47:31;;;;;;;3.33;2.03;;;;;;;13.77;58.88;100746.25;5095333;28;20017;-62
2021/06/14 01:49:57;;;;;;;8.13;2.30;;;;;;;13.77;58.92;100734.94;5094912;28;20035;-63
2021/06/14 01:52:23;;;;;;;5.93;2.80;;;;;;;13.74;58.50;100741.44;5095325;28;20089;-63
2021/06/14 01:54:51;;;;;;;3.53;1.85;;;;;;;13.69;58.50;100739.03;5095418;28;20066;-63
2021/06/14 01:57:17;;;;;;;7.75;2.15;;;;;;;13.66;59.03;100734.22;5094972;28;20024;-62
2021/06/14 01:59:44;;;;;;;5.55;2.40;;;;;;;13.64;58.38;100733.81;5095285;28;20035;-62
2021/06/14 02:02:10;;;;;;;6.00;2.22;;;;;;;13.64;58.17;100735.84;5095026;28;20102;-63
2021/06/14 02:04:37;;;;;;;5.10;2.53;;;;;;;13.64;58.49;100736.66;5095119;28;20626;-63
2021/06/14 02:07:03;;;;;;;6.03;2.30;;;;;;;13.64;58.44;100731.00;5094180;28;20047;-62
2021/06/14 02:09:29;;;;;;;3.65;2.42;;;;;;;13.63;59.03;100735.03;5095088;28;20109;-63
2021/06/14 02:11:58;;;;;;;3.30;1.80;;;;;;;13.62;58.88;100733.44;5094870;28;20471;-63
2021/06/14 02:14:30;;;;;;;5.50;2.42;;;;;;;13.63;59.20;100739.88;5095221;28;20315;-62
2021/06/14 02:17:05;;;;;;;3.47;2.30;;;;;;;13.65;58.97;100726.16;5094980;28;20036;-64
2021/06/14 02:19:31;;;;;;;8.07;2.55;;;;;;;13.63;58.79;100711.66;5095014;28;20311;-72
2021/06/14 02:21:56;;;;;;;3.97;2.22;;;;;;;13.60;58.88;100719.72;5097677;28;20107;-63
2021/06/14 02:24:21;;;;;;;8.18;2.50;;;;;;;13.65;58.92;100720.50;5098910;28;20456;-62
2021/06/14 02:26:47;;;;;;;6.32;2.22;;;;;;;13.70;59.03;100717.25;5098912;28;20022;-63
2021/06/14 02:29:13;;;;;;;8.13;2.70;;;;;;;13.69;59.04;100719.25;5098285;28;20104;-62
2021/06/14 02:31:39;;;;;;;5.80;2.10;;;;;;;13.67;58.34;100724.53;5098185;28;20056;-63
2021/06/14 02:34:06;;;;;;;4.53;2.28;;;;;;;13.67;58.90;100732.19;5098352;28;20437;-63
2021/06/14 02:36:33;;;;;;;5.82;2.38;;;;;;;13.66;58.66;100737.03;5098270;28;20028;-64
2021/06/14 02:39:02;;;;;;;4.57;2.25;;;;;;;13.64;58.93;100725.34;5098500;28;20368;-63
2021/06/14 02:41:28;;;;;;;5.72;2.08;;;;;;;13.62;58.84;100727.78;5097221;28;20086;-63
2021/06/14 02:43:54;;;;;;;4.28;2.40;;;;;;;13.62;58.84;100724.97;5098488;28;20069;-65
2021/06/14 02:46:20;;;;;;;4.85;2.40;;;;;;;13.62;59.25;100722.16;5088698;28;20357;-62
2021/06/14 02:48:48;;;;;;;5.82;2.03;;;;;;;13.64;58.91;100718.91;5096999;28;20022;-64
2021/06/14 02:51:15;;;;;;;4.15;2.20;;;;;;;13.66;59.04;100722.91;5098084;28;20024;-63
2021/06/14 02:53:43;;;;;;;5.50;2.33;;;;;;;13.66;59.12;100725.75;5097589;28;20048;-63
2021/06/14 02:56:11;;;;;;;5.70;2.83;;;;;;;13.65;59.05;100723.34;5097993;28;20028;-63
2021/06/14 02:58:42;;;;;;;4.43;2.47;;;;;;;13.64;59.37;100719.69;5097992;28;20427;-63
2021/06/14 03:01:09;;;;;;;5.60;2.38;;;;;;;13.64;59.30;100716.06;5097977;28;20028;-63
2021/06/14 03:03:36;;;;;;;4.80;2.13;;;;;;;13.64;59.08;100725.34;5097667;28;20070;-64
2021/06/14 03:06:03;;;;;;;9.35;2.80;;;;;;;13.63;59.39;100717.28;5098247;28;20034;-64
2021/06/14 03:08:30;;;;;;;4.25;2.33;;;;;;;13.61;59.76;100720.53;5098018;28;20047;-63
2021/06/14 03:10:57;;;;;;;5.47;2.58;;;;;;;13.64;59.43;100721.72;5097512;28;20218;-66
2021/06/14 03:13:22;;;;;;;3.35;2.00;;;;;;;13.63;59.23;100723.75;5097522;28;20157;-63
2021/06/14 03:15:47;;;;;;;6.40;2.08;;;;;;;13.60;59.42;100724.59;5096865;28;20475;-63
2021/06/14 03:18:14;;;;;;;6.93;2.33;;;;;;;13.58;59.97;100727.81;5097929;28;20016;-64
2021/06/14 03:20:40;;;;;;;4.75;2.00;;;;;;;13.57;59.92;100719.75;5097447;28;20016;-64
2021/06/14 03:23:12;;;;;;;7.78;2.40;;;;;;;13.56;59.99;100721.00;5097276;28;20051;-63
2021/06/14 03:25:38;;;;;;;5.88;1.92;;;;;;;13.56;59.77;100723.81;5097421;28;20292;-64
2021/06/14 03:28:05;;;;;;;3.53;1.98;;;;;;;13.55;59.90;100716.56;5097188;28;20042;-63
2021/06/14 03:30:31;;;;;;;7.07;2.28;;;;;;;13.55;60.53;100725.03;5097121;28;20028;-63
2021/06/14 03:32:57;;;;;;;4.32;2.10;;;;;;;13.55;59.77;100727.84;5095038;28;20311;-63
2021/06/14 03:35:23;;;;;;;6.35;1.73;;;;;;;13.57;60.30;100719.75;5105762;28;20019;-63
2021/06/14 03:37:49;;;;;;;5.78;2.45;;;;;;;13.58;60.02;100727.03;5101810;28;20467;-63
2021/06/14 03:40:17;;;;;;;4.00;2.00;;;;;;;13.60;59.90;100733.06;5095769;28;20024;-62
2021/06/14 03:42:43;;;;;;;4.47;2.03;;;;;;;13.62;60.09;100733.44;5079300;28;20447;-63
2021/06/14 03:45:10;;;;;;;5.95;2.80;;;;;;;13.64;60.67;100739.47;5086747;28;20031;-66
2021/06/14 03:47:37;;;;;;;7.65;2.05;;;;;;;13.66;60.55;100736.22;5083226;28;20032;-63
2021/06/14 03:50:08;;;;;;;7.65;2.30;;;;;;;13.67;60.78;100730.16;5086935;28;20095;-64
2021/06/14 03:52:34;;;;;;;5.63;2.58;;;;;;;13.68;60.49;100728.94;5083165;28;20051;-62
2021/06/14 03:54:59;;;;;;;6.93;2.25;;;;;;;13.69;60.60;100732.56;5092382;28;20471;-63
2021/06/14 03:57:25;;;;;;;4.50;2.10;;;;;;;13.70;60.56;100726.53;5095061;28;20024;-63
2021/06/14 03:59:50;;;;;;;7.47;2.20;;;;;;;13.72;61.14;100732.56;5096701;28;20296;-63
2021/06/14 04:02:15;;;;;;;6.80;2.33;;;;;;;13.77;61.11;100728.50;5096685;28;20023;-63
2021/06/14 04:04:47;;;;;;;9.48;2.35;;;;;;;13.80;60.41;100722.81;5096982;28;20328;-63
2021/06/14 04:07:12;;;;;;;6.78;2.40;;;;;;;13.86;60.59;100721.13;5095329;28;20016;-63
2021/06/14 04:09:37;;;;;;;5.45;2.40;;;;;;;13.93;60.40;100721.06;5095589;28;20097;-64
2021/06/14 04:12:04;;;;;;;7.03;2.28;;;;;;;14.02;60.35;100725.44;5094446;28;20093;-63
2021/06/14 04:14:30;;;;;;;4.28;2.25;;;;;;;14.12;60.51;100730.19;5095336;28;20419;-63
2021/06/14 04:16:55;;;;;;;5.60;2.25;;;;;;;14.21;60.51;100733.31;5094498;28;20032;-63
2021/06/14 04:19:21;;;;;;;4.43;1.98;;;;;;;14.30;59.72;100733.66;5095462;28;20439;-64
2021/06/14 04:21:46;;;;;;;8.63;2.33;;;;;;;14.41;59.89;100731.50;5095686;28;20031;-64
2021/06/14 04:24:12;;;;;;;10.93;3.30;;;;;;;14.53;59.44;100731.00;5089768;28;20020;-64
2021/06/14 04:26:37;;;;;;;9.85;2.30;;;;;;;14.65;59.37;100732.47;5095678;28;20375;-63
2021/06/14 04:29:04;;;;;;;6.47;2.08;;;;;;;14.77;59.31;100733.91;5093862;28;20042;-63
2021/06/14 04:31:29;;;;;;;4.70;1.73;;;;;;;14.79;58.65;100732.31;5085032;28;20415;-63
2021/06/14 04:33:55;;;;;;;8.55;2.00;;;;;;;14.84;58.09;100734.66;5079506;28;20024;-64
2021/06/14 04:36:20;;;;;;;4.65;1.90;;;;;;;14.88;58.21;100726.13;5084971;28;20016;-65
2021/06/14 04:38:46;;;;;;;6.25;2.60;;;;;;;14.90;58.34;100737.81;5076406;28;20047;-64
2021/06/14 04:41:11;;;;;;;9.15;2.30;;;;;;;14.89;58.19;100736.22;5076925;28;20052;-63
2021/06/14 04:43:36;;;;;;;5.18;3.03;;;;;;;14.86;57.94;100734.22;5076147;28;20028;-63
2021/06/14 04:46:02;;;;;;;7.50;2.58;;;;;;;14.79;58.24;100742.78;5079643;28;20539;-62
2021/06/14 04:48:27;;;;;;;6.70;2.55;;;;;;;14.74;59.15;100743.25;5081512;28;20028;-63
2021/06/14 04:50:53;;;;;;;2.78;1.88;;;;;;;14.71;58.81;100741.28;5078252;28;20039;-68
2021/06/14 04:53:18;;;;;;;4.30;1.80;;;;;;;14.71;59.03;100741.28;5083940;28;20107;-62
2021/06/14 04:55:43;;;;;;;5.05;2.38;;;;;;;14.73;58.77;100741.66;5089862;28;20103;-63
2021/06/14 04:58:09;;;;;;;8.15;2.25;;;;;;;14.73;59.06;100738.81;5089796;28;20028;-62
2021/06/14 05:00:34;;;;;;;6.40;2.40;;;;;;;14.79;59.20;100737.13;5093636;28;20055;-68
2021/06/14 05:03:01;;;;;;;5.55;2.35;;;;;;;14.84;59.25;100745.19;5089433;28;20399;-62
2021/06/14 05:05:27;;;;;;;7.18;2.55;;;;;;;14.91;58.89;100732.94;5089366;28;20087;-62
2021/06/14 05:07:52;;;;;;;9.80;2.80;;;;;;;14.96;58.58;100736.09;5085485;28;20034;-62
2021/06/14 05:10:17;;;;;;;5.75;2.10;;;;;;;15.02;58.90;100740.06;5093756;28;20023;-68
2021/06/14 05:12:43;;;;;;;10.82;2.55;;;;;;;15.06;58.81;100740.81;5094673;28;20416;-63
2021/06/14 05:15:09;;;;;;;7.82;1.98;;;;;;;15.10;58.60;100740.78;5094551;28;20099;-63
2021/06/14 05:17:34;;;;;;;4.93;2.63;;;;;;;15.11;58.83;100756.56;5094312;28;20069;-70
2021/06/14 05:20:00;;;;;;;4.85;2.03;;;;;;;15.11;58.98;100759.38;5092657;28;20032;-63
2021/06/14 05:22:25;;;;;;;5.45;2.20;;;;;;;15.13;58.55;100757.72;5091549;28;20051;-63
2021/06/14 05:24:52;;;;;;;8.52;2.28;;;;;;;15.17;58.62;100762.53;5093808;28;20032;-66
2021/06/14 05:27:17;;;;;;;8.98;2.53;;;;;;;15.22;58.82;100767.72;5092291;28;20024;-64
2021/06/14 05:29:43;;;;;;;4.43;2.22;;;;;;;15.23;58.01;100761.63;5093651;28;20024;-64
2021/06/14 05:32:08;;;;;;;5.45;1.92;;;;;;;15.25;58.41;100753.50;5093433;28;20035;-62
2021/06/14 05:34:34;;;;;;;7.50;2.40;;;;;;;15.29;58.12;100759.13;5096707;28;20411;-62
2021/06/14 05:36:59;;;;;;;19.92;2.95;;;;;;;15.33;58.39;100762.69;5102869;28;20142;-63
2021/06/14 05:39:25;;;;;;;7.35;2.10;;;;;;;15.38;59.11;100773.56;5094648;28;20150;-63
2021/06/14 05:41:50;;;;;;;8.65;2.75;;;;;;;15.44;58.54;100761.34;5094356;28;20462;-62
2021/06/14 05:44:16;;;;;;;4.47;2.33;;;;;;;15.52;59.06;100762.00;5093967;28;20031;-62
2021/06/14 05:46:41;;;;;;;9.30;2.50;;;;;;;15.63;58.87;100764.75;5094919;28;20032;-62
2021/06/14 05:49:06;;;;;;;6.53;2.60;;;;;;;15.73;58.17;100770.22;5094728;28;20032;-63
2021/06/14 05:51:32;;;;;;;8.20;2.72;;;;;;;15.89;58.37;100768.78;5094488;28;20028;-62
2021/06/14 05:53:57;;;;;;;8.02;2.35;;;;;;;15.99;57.32;100762.13;5094766;28;20376;-62
2021/06/14 05:56:23;;;;;;;5.32;2.60;;;;;;;16.10;56.59;100753.41;5097193;28;20026;-62
2021/06/14 05:58:49;;;;;;;13.38;3.03;;;;;;;16.17;56.64;100765.44;5098988;28;20028;-62
2021/06/14 06:01:15;;;;;;;9.43;2.25;;;;;;;16.29;56.76;100764.81;5099174;28;20304;-63
2021/06/14 06:03:40;;;;;;;4.93;2.35;;;;;;;16.46;56.75;100773.44;5099087;28;20024;-63
2021/06/14 06:06:05;;;;;;;3.88;2.40;;;;;;;16.64;56.02;100765.38;5098914;28;20032;-62
2021/06/14 06:08:31;;;;;;;6.63;2.10;;;;;;;16.80;55.21;100774.00;5099362;28;20024;-63
2021/06/14 06:10:56;;;;;;;9.15;2.00;;;;;;;16.96;56.43;100774.06;5099146;28;20031;-63
2021/06/14 06:13:22;;;;;;;7.57;2.70;;;;;;;17.16;56.17;100776.09;5098984;28;20289;-63
2021/06/14 06:15:47;;;;;;;3.33;1.98;;;;;;;17.32;55.25;100770.47;5097656;28;20126;-63
2021/06/14 06:18:12;;;;;;;8.88;2.13;;;;;;;17.41;53.82;100776.34;5098874;28;20100;-65
2021/06/14 06:20:37;;;;;;;8.95;2.97;;;;;;;17.49;54.54;100776.97;5097735;28;20149;-67
2021/06/14 06:23:04;;;;;;;4.47;1.92;;;;;;;17.54;53.79;100771.59;5097497;28;20023;-65
2021/06/14 06:25:30;;;;;;;7.30;1.92;;;;;;;17.61;53.69;100765.72;5098435;28;20339;-64
2021/06/14 06:27:56;;;;;;;5.03;1.90;;;;;;;17.73;54.61;100771.97;5098842;28;20019;-63
2021/06/14 06:30:25;;;;;;;5.88;2.08;;;;;;;17.85;53.90;100779.81;5097504;28;20110;-65
2021/06/14 06:32:51;;;;;;;6.07;2.20;;;;;;;17.94;52.45;100774.31;5098538;28;20023;-64
2021/06/14 06:35:17;;;;;;;8.55;2.30;;;;;;;17.96;52.24;100765.31;5106984;28;20016;-63
2021/06/14 06:37:43;;;;;;;9.52;2.45;;;;;;;17.97;52.61;100779.09;5100835;28;20035;-65
2021/06/14 06:40:09;;;;;;;4.22;2.67;;;;;;;18.00;51.50;100772.53;5098244;28;20024;-64
2021/06/14 06:42:35;;;;;;;6.15;2.25;;;;;;;18.00;51.90;100769.69;5098307;28;20047;-64
2021/06/14 06:45:00;;;;;;;4.78;2.05;;;;;;;18.07;53.59;100777.22;5098154;28;20020;-64
2021/06/14 06:47:26;;;;;;;5.95;2.20;;;;;;;18.17;52.35;100774.13;5098468;28;20107;-67
2021/06/14 06:49:51;;;;;;;10.43;2.50;;;;;;;18.26;51.98;100770.63;5098233;28;20053;-67
2021/06/14 06:52:17;;;;;;;6.22;2.33;;;;;;;18.34;51.20;100765.56;5098242;28;20020;-64
2021/06/14 06:54:42;;;;;;;8.75;2.25;;;;;;;18.43;51.50;100766.53;5097849;28;20403;-63
2021/06/14 06:57:08;;;;;;;8.32;2.08;;;;;;;18.54;50.95;100760.53;5097800;28;20035;-66
2021/06/14 06:59:33;;;;;;;7.40;2.30;;;;;;;18.65;51.66;100754.59;5098470;28;20048;-63
2021/06/14 07:01:59;;;;;;;6.22;2.38;;;;;;;18.79;52.21;100760.66;5097833;28;20031;-64
2021/06/14 07:04:24;;;;;;;5.63;2.22;;;;;;;18.88;50.88;100751.44;5098064;28;20024;-63
2021/06/14 07:06:50;;;;;;;5.80;2.55;;;;;;;18.99;51.08;100751.16;5097614;28;20059;-64
2021/06/14 07:09:16;;;;;;;5.30;2.08;;;;;;;19.10;50.04;100763.81;5097668;28;20323;-66
2021/06/14 07:11:41;;;;;;;7.68;2.10;;;;;;;19.20;48.31;100756.22;5096956;28;20439;-64
2021/06/14 07:14:06;;;;;;;4.28;2.08;;;;;;;19.31;49.54;100756.69;5097715;28;20046;-65
2021/06/14 07:16:33;;;;;;;4.38;1.90;;;;;;;19.41;48.73;100761.25;5096708;28;20070;-71
2021/06/14 07:19:00;;;;;;;3.95;1.77;;;;;;;19.48;48.34;100750.91;5097698;28;20031;-65
2021/06/14 07:21:26;;;;;;;6.53;2.15;;;;;;;19.57;49.45;100753.88;5097728;28;20038;-64
2021/06/14 07:23:52;;;;;;;7.22;2.15;;;;;;;19.65;47.61;100746.69;5097282;28;20115;-74
2021/06/14 07:26:17;;;;;;;4.13;1.77;;;;;;;19.69;47.19;100750.22;5097703;28;20103;-68
2021/06/14 07:28:43;;;;;;;5.32;1.85;;;;;;;19.69;47.94;100753.06;5097603;28;20020;-74
2021/06/14 07:31:09;;;;;;;6.20;2.10;;;;;;;19.67;47.17;100753.53;5097382;28;20478;-74
2021/06/14 07:33:36;;;;;;;8.52;2.20;;;;;;;19.68;47.13;100771.44;5096392;28;20106;-63
2021/06/14 07:36:06;;;;;;;5.32;2.20;;;;;;;19.69;46.41;100770.97;5108473;28;20032;-63
2021/06/14 07:38:32;;;;;;;3.37;1.67;;;;;;;19.70;46.87;100772.56;5097115;28;20031;-63
2021/06/14 07:40:57;;;;;;;4.40;2.00;;;;;;;19.73;47.15;100773.75;5096864;28;20272;-64
2021/06/14 07:43:24;;;;;;;6.22;2.13;;;;;;;19.78;47.50;100778.06;5097233;28;20024;-66
2021/06/14 07:45:50;;;;;;;4.55;2.33;;;;;;;19.84;46.96;100776.22;5097181;28;20078;-65
2021/06/14 07:48:16;;;;;;;4.55;1.65;;;;;;;19.89;45.96;100776.44;5097261;28;20024;-65
2021/06/14 07:50:43;;;;;;;6.40;2.30;;;;;;;19.92;46.11;100778.38;5097319;28;20043;-66
2021/06/14 07:53:09;;;;;;;7.95;1.95;;;;;;;19.96;46.94;100779.06;5096524;28;20024;-68
2021/06/14 07:55:36;;;;;;;6.15;1.65;;;;;;;20.02;45.64;100780.09;5095863;28;20020;-69
2021/06/14 07:58:02;;;;;;;5.03;1.30;;;;;;;20.08;45.06;100768.91;5097117;28;20293;-66
2021/06/14 08:00:27;;;;;;;9.73;2.67;;;;;;;20.17;44.45;100776.75;5096764;28;20024;-67
2021/06/14 08:02:55;;;;;;;4.97;2.03;;;;;;;20.24;43.87;100776.50;5096788;28;20320;-65
2021/06/14 08:05:21;;;;;;;4.22;1.80;;;;;;;20.29;43.64;100768.16;5096613;28;20403;-66
2021/06/14 08:07:46;;;;;;;5.63;1.58;;;;;;;20.32;42.95;100772.97;5096722;28;20047;-69
2021/06/14 08:10:15;;;;;;;4.07;1.63;;;;;;;20.33;43.68;100768.84;5096563;28;20024;-73
2021/06/14 08:12:47;;;;;;;5.95;1.80;;;;;;;20.36;44.32;100767.91;5096818;28;20047;-68
2021/06/14 08:15:15;;;;;;;8.60;1.98;;;;;;;20.39;43.79;100766.19;5096744;28;20028;-66
2021/06/14 08:17:40;;;;;;;3.90;1.65;;;;;;;20.40;43.98;100767.81;5096170;28;20032;-64
2021/06/14 08:21:00;;;;;;;9.32;2.10;;;;;;;20.42;44.19;100767.34;5096146;28;20031;-64
2021/06/14 08:25:33;;;;;;;6.20;1.65;;;;;;;20.49;44.70;100770.75;5096605;28;20028;-67
2021/06/14 08:27:59;;;;;;;6.18;1.95;;;;;;;20.56;44.30;100767.66;5096565;28;20455;-64
2021/06/14 08:30:27;;;;;;;3.35;1.52;;;;;;;20.61;44.45;100766.25;5096450;28;20023;-63
2021/06/14 08:32:53;;;;;;;4.18;1.48;;;;;;;20.73;45.37;100764.59;5096325;28;20024;-63
2021/06/14 08:35:20;;;;;;;5.97;1.67;;;;;;;20.84;45.07;100762.16;5104892;28;20322;-65
2021/06/14 08:37:47;;;;;;;4.25;1.55;;;;;;;20.96;45.88;100752.72;5098062;28;20051;-68
2021/06/14 08:40:16;;;;;;;3.90;1.88;;;;;;;20.99;43.29;100760.34;5096092;28;20024;-64
2021/06/14 08:42:43;;;;;;;7.22;1.67;;;;;;;21.06;44.09;100760.06;5095985;28;20040;-68
2021/06/14 08:45:11;;;;;;;6.20;1.92;;;;;;;21.12;42.90;100766.81;5095991;28;20024;-69
2021/06/14 08:47:39;;;;;;;3.90;1.48;;;;;;;21.25;43.42;100763.88;5095949;28;20020;-64
2021/06/14 08:50:10;;;;;;;3.92;1.67;;;;;;;21.38;43.39;100767.47;5095881;28;20399;-63
2021/06/14 08:52:36;;;;;;;6.85;1.95;;;;;;;21.44;42.82;100764.78;5095923;28;20085;-65
2021/06/14 08:55:05;;;;;;;5.22;1.92;;;;;;;21.46;42.48;100773.69;5095968;28;20086;-69
2021/06/14 08:57:30;;;;;;;8.13;1.90;;;;;;;21.44;40.67;100768.44;5095902;28;20315;-69
2021/06/14 08:59:56;;;;;;;5.30;1.70;;;;;;;21.44;41.09;100770.50;5095655;28;20036;-68
2021/06/14 09:02:21;;;;;;;3.70;1.52;;;;;;;21.38;40.51;100776.03;5095860;28;20445;-68
2021/06/14 09:04:46;;;;;;;6.50;1.88;;;;;;;21.33;40.29;100776.63;5095799;28;20077;-69
2021/06/14 09:07:12;;;;;;;3.17;1.65;;;;;;;21.29;40.83;100776.75;5095539;28;20065;-67
2021/06/14 09:09:37;;;;;;;3.55;1.77;;;;;;;21.25;40.84;100773.25;5094894;28;20027;-63
2021/06/14 09:12:05;;;;;;;4.70;1.65;;;;;;;21.26;41.12;100771.19;5095755;28;20341;-63
2021/06/14 09:14:32;;;;;;;5.40;1.67;;;;;;;21.27;42.03;100762.16;5095637;28;20315;-63
2021/06/14 09:17:04;;;;;;;8.27;2.25;;;;;;;21.33;42.07;100767.25;5095802;28;20058;-63
2021/06/14 09:19:49;;;;;;;5.88;1.92;;;;;;;21.36;41.44;100760.59;5095575;28;20035;-63
2021/06/14 09:22:20;;;;;;;3.10;1.92;;;;;;;21.36;40.70;100761.38;5095614;28;20046;-63
2021/06/14 09:25:01;;;;;;;4.90;1.40;;;;;;;21.42;41.26;100762.41;5095760;28;20043;-63
2021/06/14 09:27:47;;;;;;;5.80;2.08;;;;;;;21.52;42.28;100763.22;5095328;28;20035;-65
2021/06/14 09:30:23;;;;;;;5.00;1.65;;;;;;;21.63;41.85;100754.22;5097647;28;20411;-65
2021/06/14 09:32:53;;;;;;;3.15;1.35;;;;;;;21.79;41.58;100746.16;5099516;28;20024;-64
2021/06/14 09:35:20;;;;;;;6.70;1.92;;;;;;;21.96;40.20;100743.06;5108647;28;20086;-64
2021/06/14 09:38:02;;;;;;;7.85;1.80;;;;;;;21.98;39.55;100749.09;5101916;28;20032;-64
2021/06/14 09:40:34;;;;;;;4.32;1.50;;;;;;;21.98;39.61;100741.31;5099767;28;20080;-63
2021/06/14 09:43:01;;;;;;;4.47;1.70;;;;;;;22.01;39.30;100746.06;5099323;28;20020;-64
2021/06/14 09:45:26;;;;;;;4.25;1.50;;;;;;;21.99;39.86;100747.81;5099630;28;20036;-62
2021/06/14 09:47:54;;;;;;;3.47;1.40;;;;;;;21.94;39.24;100740.66;5099196;28;20023;-64
2021/06/14 09:50:25;;;;;;;4.63;1.90;;;;;;;21.93;40.24;100738.28;5099451;28;20035;-63
2021/06/14 09:53:03;;;;;;;4.07;1.73;;;;;;;21.91;39.90;100741.59;5099312;28;20095;-66
2021/06/14 09:55:29;;;;;;;5.15;1.30;;;;;;;21.85;39.39;100741.41;5097969;28;20028;-63
2021/06/14 09:57:54;;;;;;;8.82;2.20;;;;;;;21.83;39.21;100741.09;5099289;28;20130;-63
2021/06/14 10:00:21;;;;;;;5.35;1.80;;;;;;;21.81;39.59;100732.19;5099091;28;20069;-65
2021/06/14 10:02:46;;;;;;;5.05;1.83;;;;;;;21.80;39.75;100732.66;5099184;28;20094;-65
2021/06/14 10:05:22;;;;;;;4.63;1.70;;;;;;;21.79;39.73;100733.94;5097767;28;20361;-67
2021/06/14 10:07:54;;;;;;;10.02;1.73;;;;;;;21.85;39.45;100744.28;5099288;28;20032;-63
2021/06/14 10:10:28;;;;;;;5.38;1.80;;;;;;;21.90;39.10;100746.50;5098782;28;20020;-67
2021/06/14 10:12:56;;;;;;;8.73;1.77;;;;;;;21.98;38.60;100740.50;5099182;28;20055;-65
2021/06/14 10:15:37;;;;;;;4.82;1.92;;;;;;;22.06;38.53;100733.22;5098853;28;20034;-68
2021/06/14 10:18:04;;;;;;;8.18;1.60;;;;;;;22.15;38.96;100733.25;5098888;28;20027;-66
2021/06/14 10:20:31;;;;;;;4.35;1.58;;;;;;;22.17;39.69;100724.97;5098839;28;20028;-65
2021/06/14 10:22:59;;;;;;;4.75;1.83;;;;;;;22.15;39.52;100734.03;5098653;28;20032;-68
2021/06/14 10:25:25;;;;;;;4.68;2.10;;;;;;;22.12;38.20;100740.72;5098893;28;20032;-71
2021/06/14 10:27:51;;;;;;;8.88;2.63;;;;;;;22.10;38.73;100748.19;5097850;28;20016;-67
2021/06/14 10:30:19;;;;;;;8.40;2.72;;;;;;;22.06;38.91;100741.81;5098734;28;20028;-70
2021/06/14 10:32:45;;;;;;;9.93;2.65;;;;;;;22.02;39.39;100736.22;5098439;28;20028;-67
2021/06/14 10:35:13;;;;;;;9.55;2.92;;;;;;;21.98;39.32;100714.75;5106393;28;20073;-63
2021/06/14 10:37:46;;;;;;;9.13;2.67;;;;;;;22.02;39.60;100724.78;5101230;28;20024;-62
2021/06/14 10:40:15;;;;;;;3.67;2.00;;;;;;;22.10;40.27;100720.34;5098589;28;20020;-65
2021/06/14 10:42:44;;;;;;;4.00;2.17;;;;;;;22.22;39.93;100714.97;5097613;28;20080;-70
2021/06/14 10:45:11;;;;;;;5.93;2.20;;;;;;;22.34;39.01;100703.38;5097981;28;20020;-72
2021/06/14 10:47:39;;;;;;;3.78;1.83;;;;;;;22.46;38.86;100685.25;5098339;28;20069;-68
2021/06/14 10:50:05;;;;;;;3.80;1.50;;;;;;;22.57;39.23;100696.19;5098550;28;20027;-67
2021/06/14 10:52:42;;;;;;;7.53;2.00;;;;;;;22.68;38.42;100689.97;5096831;28;20020;-63
2021/06/14 10:55:09;;;;;;;8.32;2.20;;;;;;;22.71;38.61;100694.75;5098036;28;20038;-62
2021/06/14 10:57:35;;;;;;;9.65;3.20;;;;;;;22.67;38.05;100691.25;5098078;28;20040;-62
2021/06/14 11:00:00;;;;;;;5.10;2.60;;;;;;;22.66;38.82;100698.25;5097871;28;20039;-62
2021/06/14 11:02:25;;;;;;;6.68;2.15;;;;;;;22.68;38.67;100684.25;5097763;28;20054;-75
2021/06/14 11:04:51;;;;;;;10.55;2.08;;;;;;;22.71;38.97;100686.16;5097844;28;20116;-63
2021/06/14 11:07:16;;;;;;;3.50;1.80;;;;;;;22.70;38.72;100679.63;5097437;28;20053;-63
2021/06/14 11:09:44;;;;;;;6.60;2.17;;;;;;;22.73;38.73;100675.00;5098306;28;20016;-63
2021/06/14 11:12:22;;;;;;;7.05;1.95;;;;;;;22.81;38.16;100670.56;5097881;28;20026;-65
2021/06/14 11:14:48;;;;;;;6.20;1.67;;;;;;;22.83;38.29;100670.88;5097805;28;20020;-62
2021/06/14 11:17:25;;;;;;;4.35;1.73;;;;;;;22.82;38.24;100675.03;5097834;28;20035;-62
2021/06/14 11:20:03;;;;;;;4.72;1.40;;;;;;;22.75;37.64;100672.47;5097545;28;20035;-64
2021/06/14 11:22:40;;;;;;;8.02;1.80;;;;;;;22.66;38.26;100675.34;5097352;28;20068;-65
2021/06/14 11:25:20;;;;;;;7.50;1.80;;;;;;;22.57;38.51;100666.75;5097648;28;20054;-62
2021/06/14 11:27:46;;;;;;;7.25;2.05;;;;;;;22.51;38.80;100669.47;5097366;28;20069;-62
2021/06/14 11:30:32;;;;;;;6.18;1.92;;;;;;;22.43;39.64;100669.00;5097192;28;20020;-73